Comitan Airport


Codes: MMCO/CJT
Name: Comitan Airport
City:
Country: Mexico
Elevation: 5161 ft.

Photos at Comitan Airport


   Photos courtesy of SpottingLog. You can add your own sightings and photos by signing up for a free trial today.



No photos found.

Weather at Comitan Airport


Time (UTC)DescriptionTempratureWindCloud coverageVisibilityPressureHumidity
19-Apr-2024 06:00Few Clouds21°C4 mph, NE19%10000m1014hPa52%
19-Apr-2024 09:00Clear Sky19°C7 mph, NE2%10000m1014hPa62%
19-Apr-2024 12:00Clear Sky17°C4 mph, N0%10000m1015hPa68%
19-Apr-2024 15:00Scattered Clouds26°C4 mph, S47%10000m1015hPa38%
19-Apr-2024 18:00Scattered Clouds31°C7 mph, SE46%10000m1011hPa22%
19-Apr-2024 21:00Scattered Clouds32°C11 mph, E29%10000m1008hPa20%
20-Apr-2024 00:00Scattered Clouds26°C16 mph, NE36%10000m1011hPa36%
20-Apr-2024 03:00Clear Sky22°C9 mph, NE4%10000m1015hPa48%
20-Apr-2024 06:00Clear Sky19°C7 mph, NE8%10000m1016hPa65%
20-Apr-2024 09:00Clear Sky17°C4 mph, N0%10000m1015hPa80%
20-Apr-2024 12:00Clear Sky16°C4 mph, N2%10000m1017hPa76%
20-Apr-2024 15:00Broken Clouds25°C4 mph, S61%10000m1016hPa43%
20-Apr-2024 18:00Scattered Clouds31°C9 mph, SW34%10000m1012hPa26%
20-Apr-2024 21:00Few Clouds32°C7 mph, S15%10000m1009hPa25%
21-Apr-2024 00:00Light Rain24°C7 mph, N53%10000m1012hPa48%
21-Apr-2024 03:00Scattered Clouds22°C7 mph, NE40%10000m1014hPa46%
21-Apr-2024 06:00Light Rain20°C4 mph, N71%10000m1015hPa73%
21-Apr-2024 09:00Scattered Clouds18°C4 mph, NE46%10000m1014hPa80%
21-Apr-2024 12:00Scattered Clouds17°C2 mph, N36%10000m1015hPa78%
21-Apr-2024 15:00Clear Sky25°C7 mph, SW0%10000m1015hPa50%
21-Apr-2024 18:00Clear Sky31°C11 mph, SW0%10000m1011hPa30%
21-Apr-2024 21:00Light Rain22°C13 mph, NW47%7853m1011hPa66%
22-Apr-2024 00:00Moderate Rain20°C16 mph, N65%10000m1013hPa71%
22-Apr-2024 03:00Moderate Rain18°C4 mph, N100%10000m1015hPa72%
22-Apr-2024 06:00Light Rain18°C4 mph, N100%10000m1015hPa75%
22-Apr-2024 09:00Overcast Clouds18°C4 mph, NE100%10000m1014hPa80%
22-Apr-2024 12:00Broken Clouds17°C4 mph, NE71%10000m1015hPa84%
22-Apr-2024 15:00Few Clouds23°C2 mph, E12%10000m1015hPa56%
22-Apr-2024 18:00Few Clouds29°C7 mph, E16%10000m1011hPa32%
22-Apr-2024 21:00Overcast Clouds29°C9 mph, NE90%10000m1009hPa30%
23-Apr-2024 00:00Overcast Clouds23°C11 mph, NE90%10000m1012hPa54%
23-Apr-2024 03:00Broken Clouds20°C2 mph, N74%10000m1015hPa65%
23-Apr-2024 06:00Broken Clouds19°C2 mph, NE84%10000m1015hPa68%
23-Apr-2024 09:00Broken Clouds17°C4 mph, NE84%10000m1014hPa77%
23-Apr-2024 12:00Scattered Clouds16°C4 mph, NE46%10000m1015hPa83%
23-Apr-2024 15:00Clear Sky24°C4 mph, E3%10000m1015hPa50%
23-Apr-2024 18:00Clear Sky29°C4 mph, E8%10000m1012hPa31%
23-Apr-2024 21:00Broken Clouds29°C7 mph, E74%10000m1009hPa29%
24-Apr-2024 00:00Broken Clouds25°C11 mph, E78%10000m1011hPa44%
24-Apr-2024 03:00Scattered Clouds21°C7 mph, NE32%10000m1015hPa61%